createdAt,value
2018-12-29T00:01:48.116Z,99332.17
2018-12-29T00:04:36.930Z,99322.48
2018-12-29T00:07:25.768Z,99324.56
2018-12-29T00:10:14.567Z,99325.42
2018-12-29T00:13:03.393Z,99322.36
2018-12-29T00:15:52.181Z,99330.86
2018-12-29T00:18:41.005Z,99323.92
2018-12-29T00:21:29.827Z,99321.64
2018-12-29T00:24:18.620Z,99312.63
2018-12-29T00:26:59.931Z,99312.09
2018-12-29T00:29:48.725Z,99320.41
2018-12-29T00:32:37.812Z,99317.20
2018-12-29T00:35:26.612Z,99310.73
2018-12-29T00:38:15.437Z,99044.62
2018-12-29T00:41:04.230Z,99310.17
2018-12-29T00:43:53.143Z,99027.59
2018-12-29T00:46:41.924Z,99301.05
2018-12-29T00:49:30.769Z,99302.38
2018-12-29T00:52:19.565Z,99296.30
2018-12-29T00:55:08.386Z,99005.27
2018-12-29T00:57:57.179Z,99303.74
2018-12-29T01:00:45.995Z,99299.96
2018-12-29T01:03:34.809Z,99310.10
2018-12-29T01:06:23.606Z,99307.28
2018-12-29T01:09:12.443Z,99318.46
2018-12-29T01:12:01.234Z,99308.22
2018-12-29T01:14:50.055Z,99309.05
2018-12-29T01:17:38.867Z,99311.89
2018-12-29T01:20:27.688Z,99314.87
2018-12-29T01:23:16.483Z,99313.88
2018-12-29T01:25:58.159Z,99103.98
2018-12-29T01:28:46.960Z,99321.45
2018-12-29T01:31:35.770Z,99325.13
2018-12-29T01:34:24.569Z,99321.11
2018-12-29T01:37:13.387Z,99007.35
2018-12-29T01:40:02.187Z,99316.70
2018-12-29T01:42:51.014Z,99139.20
2018-12-29T01:45:39.812Z,99319.67
2018-12-29T01:48:28.654Z,99319.52
2018-12-29T01:51:17.469Z,99340.64
2018-12-29T01:54:06.270Z,99340.70
2018-12-29T01:56:55.073Z,99336.51
2018-12-29T01:59:43.890Z,99330.18
2018-12-29T02:02:32.692Z,99049.23
2018-12-29T02:05:21.518Z,99338.41
2018-12-29T02:08:10.301Z,99335.31
2018-12-29T02:10:59.148Z,99331.86
2018-12-29T02:13:47.963Z,99036.88
2018-12-29T02:16:36.777Z,99309.31
2018-12-29T02:19:06.235Z,99319.67
2018-12-29T02:21:55.063Z,99324.48
2018-12-29T02:24:36.581Z,99032.75
2018-12-29T02:27:25.396Z,99323.05
2018-12-29T02:30:14.192Z,99330.73
2018-12-29T02:33:03.009Z,99325.14
2018-12-29T02:36:10.826Z,99328.41
2018-12-29T02:38:59.639Z,99322.22
2018-12-29T02:41:48.505Z,99131.63
2018-12-29T02:44:37.310Z,99308.86
2018-12-29T02:47:26.139Z,99310.01
2018-12-29T02:53:09.536Z,99282.23
2018-12-29T02:55:58.358Z,99309.08
2018-12-29T02:58:47.152Z,99303.88
2018-12-29T03:01:35.976Z,98985.73
2018-12-29T03:04:24.784Z,99297.84
2018-12-29T03:07:13.594Z,99005.88
2018-12-29T03:10:02.421Z,99292.00
2018-12-29T03:12:51.206Z,99286.20
2018-12-29T03:15:41.691Z,99274.63
2018-12-29T03:18:30.545Z,99277.79
2018-12-29T03:21:19.639Z,99272.44
2018-12-29T03:24:08.451Z,99270.78
2018-12-29T03:26:57.343Z,99269.13
2018-12-29T03:29:46.129Z,99265.62
2018-12-29T03:32:34.960Z,98964.19
2018-12-29T03:35:23.760Z,99273.47
2018-12-29T03:38:12.572Z,99170.55
2018-12-29T03:41:01.459Z,99275.59
2018-12-29T03:43:50.269Z,99271.02
2018-12-29T03:46:39.095Z,99270.95
2018-12-29T03:49:27.902Z,99273.53
2018-12-29T03:52:16.722Z,99274.10
2018-12-29T03:55:05.682Z,98963.09
2018-12-29T03:57:54.488Z,99273.14
2018-12-29T04:00:43.299Z,99273.47
2018-12-29T04:03:32.120Z,99266.37
2018-12-29T04:06:20.918Z,99272.17
2018-12-29T04:09:48.422Z,99276.86
2018-12-29T04:12:37.281Z,99277.49
2018-12-29T04:15:26.108Z,98982.77
2018-12-29T04:18:14.900Z,99289.03
2018-12-29T04:21:03.733Z,99287.47
2018-12-29T04:23:52.595Z,99288.00
2018-12-29T04:26:34.034Z,99289.52
2018-12-29T04:29:03.505Z,99285.02
2018-12-29T04:31:52.296Z,99281.00
2018-12-29T04:34:41.114Z,99019.80
2018-12-29T04:37:29.915Z,99283.06
2018-12-29T04:40:18.740Z,99028.18
2018-12-29T04:43:07.543Z,99274.27
2018-12-29T04:45:56.683Z,99192.78
2018-12-29T04:48:45.483Z,99271.98
2018-12-29T04:51:34.332Z,99272.53
2018-12-29T04:54:23.126Z,99275.22
2018-12-29T04:57:11.955Z,99281.84
2018-12-29T05:00:00.771Z,99269.15
2018-12-29T05:02:49.560Z,99275.22
2018-12-29T05:05:38.388Z,99279.16
2018-12-29T05:08:27.261Z,99283.58
2018-12-29T05:11:16.091Z,99000.86
2018-12-29T05:17:12.723Z,98998.80
2018-12-29T05:20:01.512Z,98988.83
2018-12-29T05:22:43.478Z,99284.12
2018-12-29T05:25:32.276Z,98999.20
2018-12-29T05:28:21.095Z,99282.37
2018-12-29T05:31:09.958Z,99280.09
2018-12-29T05:33:58.787Z,99279.30
2018-12-29T05:36:47.579Z,99282.29
2018-12-29T05:39:36.393Z,99271.39
2018-12-29T05:42:25.192Z,99277.46
2018-12-29T05:45:14.289Z,99285.94
2018-12-29T05:48:03.182Z,99288.59
2018-12-29T05:50:51.978Z,99165.05
2018-12-29T05:53:40.803Z,99287.34
2018-12-29T05:56:29.608Z,99282.13
2018-12-29T05:59:18.419Z,99286.08
2018-12-29T06:02:07.215Z,99286.76
2018-12-29T06:04:56.034Z,99292.77
2018-12-29T06:07:44.906Z,99179.25
2018-12-29T06:10:33.693Z,99297.75
2018-12-29T06:13:22.490Z,99300.37
2018-12-29T06:16:11.305Z,99300.63
2018-12-29T06:19:00.151Z,99305.44
2018-12-29T06:21:48.950Z,99065.75
2018-12-29T06:24:30.667Z,99308.81
2018-12-29T06:27:19.467Z,99316.40
2018-12-29T06:30:08.356Z,99322.22
2018-12-29T06:32:57.181Z,99323.02
2018-12-29T06:35:46.015Z,99320.89
2018-12-29T06:38:34.810Z,99327.97
2018-12-29T06:41:23.900Z,99338.63
2018-12-29T06:44:12.693Z,99336.03
2018-12-29T06:47:01.524Z,99266.95
2018-12-29T06:49:50.310Z,99347.52
2018-12-29T06:52:39.142Z,99344.92
2018-12-29T06:55:27.954Z,99347.45
2018-12-29T06:58:16.770Z,99343.27
2018-12-29T07:01:05.562Z,99348.55
2018-12-29T07:03:54.454Z,99352.91
2018-12-29T07:06:43.260Z,99352.44
2018-12-29T07:09:32.087Z,99040.05
2018-12-29T07:12:20.872Z,99357.22
2018-12-29T07:15:09.721Z,99078.47
2018-12-29T07:17:58.507Z,99356.00
2018-12-29T07:23:40.150Z,99365.70
2018-12-29T07:26:28.956Z,99365.87
2018-12-29T07:29:17.747Z,99368.16
2018-12-29T07:32:06.574Z,99364.38
2018-12-29T07:38:10.224Z,99267.96
2018-12-29T07:40:59.043Z,99373.38
2018-12-29T07:43:47.864Z,99363.33
2018-12-29T07:46:36.666Z,99362.80
2018-12-29T07:49:25.475Z,99199.82
2018-12-29T07:52:14.280Z,99355.91
2018-12-29T07:55:03.102Z,99357.41
2018-12-29T07:57:51.897Z,99355.53
2018-12-29T08:00:40.729Z,99099.19
2018-12-29T08:03:29.518Z,99361.27
2018-12-29T08:06:18.346Z,99278.77
2018-12-29T08:09:07.990Z,99367.42
2018-12-29T08:11:56.811Z,99363.80
2018-12-29T08:14:45.638Z,99355.44
2018-12-29T08:17:34.423Z,99358.36
2018-12-29T08:20:23.255Z,99109.49
2018-12-29T08:23:12.054Z,99360.25
2018-12-29T08:25:53.629Z,99359.95
2018-12-29T08:28:42.432Z,99368.16
2018-12-29T08:31:31.275Z,99371.88
2018-12-29T08:34:20.040Z,99377.39
2018-12-29T08:37:08.852Z,99372.11
2018-12-29T08:39:57.658Z,99368.09
2018-12-29T08:42:46.476Z,99367.13
2018-12-29T08:45:35.280Z,99364.53
2018-12-29T08:48:24.092Z,99370.91
2018-12-29T08:51:12.896Z,99361.37
2018-12-29T08:54:01.764Z,99366.03
2018-12-29T08:56:50.566Z,99363.17
2018-12-29T08:59:39.379Z,99364.44
2018-12-29T09:02:28.194Z,99360.41
2018-12-29T09:05:17.011Z,99151.77
2018-12-29T09:08:05.812Z,99362.24
2018-12-29T09:10:54.645Z,99356.86
2018-12-29T09:13:43.462Z,99363.41
2018-12-29T09:16:32.278Z,99367.03
2018-12-29T09:19:27.193Z,99186.47
2018-12-29T09:22:11.627Z,99365.63
2018-12-29T09:24:53.161Z,99082.02
2018-12-29T09:27:41.966Z,99361.61
2018-12-29T09:30:30.798Z,99050.41
2018-12-29T09:33:19.582Z,99340.62
2018-12-29T09:36:08.393Z,99160.87
2018-12-29T09:38:57.216Z,99344.16
2018-12-29T09:41:46.008Z,99320.35
2018-12-29T09:44:34.835Z,99339.98
2018-12-29T09:47:23.658Z,99338.41
2018-12-29T09:50:12.461Z,99340.83
2018-12-29T09:53:01.261Z,99340.65
2018-12-29T09:55:50.064Z,99344.97
2018-12-29T09:58:38.869Z,99251.19
2018-12-29T10:01:27.677Z,99336.69
2018-12-29T10:04:16.471Z,99330.72
2018-12-29T10:07:05.317Z,99332.02
2018-12-29T10:09:54.149Z,99327.58
2018-12-29T10:12:42.963Z,99324.05
2018-12-29T10:19:00.358Z,99326.35
2018-12-29T10:21:49.185Z,99329.34
2018-12-29T10:24:30.784Z,99324.69
2018-12-29T10:27:19.611Z,99323.02
2018-12-29T10:30:08.399Z,99324.24
2018-12-29T10:32:57.261Z,99230.59
2018-12-29T10:35:46.058Z,99307.50
2018-12-29T10:38:34.911Z,99306.09
2018-12-29T10:41:23.748Z,99303.27
2018-12-29T10:44:12.604Z,99294.64
2018-12-29T10:47:01.753Z,99053.66
2018-12-29T10:49:50.562Z,99290.09
2018-12-29T10:52:39.453Z,99281.05
2018-12-29T10:55:28.264Z,99269.55
2018-12-29T10:58:17.064Z,99258.16
2018-12-29T11:01:05.952Z,99250.70
2018-12-29T11:03:54.753Z,99251.97
2018-12-29T11:06:43.576Z,99254.42
2018-12-29T11:09:32.368Z,99240.16
2018-12-29T11:12:21.212Z,99230.91
2018-12-29T11:15:29.040Z,99240.53
2018-12-29T11:18:17.835Z,99229.23
2018-12-29T11:21:06.648Z,99216.37
2018-12-29T11:23:55.509Z,99128.81
2018-12-29T11:26:35.336Z,99198.42
2018-12-29T11:29:24.138Z,99202.31
2018-12-29T11:32:12.994Z,99198.89
2018-12-29T11:35:02.112Z,99196.69
2018-12-29T11:37:50.918Z,99194.28
2018-12-29T11:40:39.717Z,99190.58
2018-12-29T11:43:28.533Z,98918.75
2018-12-29T11:46:17.350Z,99165.11
2018-12-29T11:49:06.231Z,99096.99
2018-12-29T11:51:55.033Z,99169.58
2018-12-29T11:54:43.848Z,99175.59
2018-12-29T11:57:32.661Z,99183.48
2018-12-29T12:00:21.482Z,99169.66
2018-12-29T12:06:04.261Z,99174.38
2018-12-29T12:08:53.040Z,99155.66
2018-12-29T12:11:41.840Z,98889.63
2018-12-29T12:14:30.655Z,99163.25
2018-12-29T12:17:19.447Z,99048.14
2018-12-29T12:20:08.264Z,99152.28
2018-12-29T12:22:57.057Z,99157.61
2018-12-29T12:25:45.964Z,99153.14
2018-12-29T12:28:27.401Z,99150.16
2018-12-29T12:31:16.210Z,99154.02
2018-12-29T12:34:05.002Z,99146.15
2018-12-29T12:36:55.539Z,99133.02
2018-12-29T12:39:44.333Z,99135.62
2018-12-29T12:42:33.164Z,98833.28
2018-12-29T12:45:21.960Z,99150.33
2018-12-29T12:48:10.772Z,98984.56
2018-12-29T12:50:59.565Z,99148.61
2018-12-29T12:53:48.384Z,98875.52
2018-12-29T12:56:37.205Z,99156.02
2018-12-29T12:59:26.176Z,98883.56
2018-12-29T13:02:14.991Z,99161.38
2018-12-29T13:05:03.878Z,99156.40
2018-12-29T13:07:52.698Z,98973.72
2018-12-29T13:10:43.240Z,99131.30
2018-12-29T13:13:32.045Z,99119.45
2018-12-29T13:16:20.881Z,99109.55
2018-12-29T13:19:09.652Z,98855.45
2018-12-29T13:21:58.472Z,99128.41
2018-12-29T13:24:39.685Z,98843.81
2018-12-29T13:27:28.508Z,99124.37
2018-12-29T13:30:17.645Z,98827.33
2018-12-29T13:33:06.476Z,99131.35
2018-12-29T13:35:55.270Z,99133.66
2018-12-29T13:38:44.098Z,99126.74
2018-12-29T13:41:32.889Z,99113.45
2018-12-29T13:44:21.707Z,98842.20
2018-12-29T13:47:10.523Z,99114.17
2018-12-29T13:49:59.354Z,98906.77
2018-12-29T13:52:48.144Z,99096.31
2018-12-29T13:55:36.963Z,99076.95
2018-12-29T13:58:25.757Z,99053.08
2018-12-29T14:01:14.659Z,99049.23
2018-12-29T14:04:03.450Z,99052.57
2018-12-29T14:06:53.993Z,99065.14
2018-12-29T14:09:42.806Z,99076.81
2018-12-29T14:12:33.315Z,98782.95
2018-12-29T14:15:22.152Z,99057.20
2018-12-29T14:18:11.003Z,99067.16
2018-12-29T14:20:59.830Z,99066.13
2018-12-29T14:23:48.624Z,99040.27
2018-12-29T14:26:37.456Z,98734.84
2018-12-29T14:29:26.261Z,99034.48
2018-12-29T14:32:15.060Z,99026.76
2018-12-29T14:35:03.940Z,99036.66
2018-12-29T14:37:52.731Z,99036.38
2018-12-29T14:40:41.561Z,98784.36
2018-12-29T14:43:30.352Z,99070.50
2018-12-29T14:46:19.189Z,98779.94
2018-12-29T14:49:07.983Z,99052.80
2018-12-29T14:51:56.803Z,99045.53
2018-12-29T14:54:45.600Z,99026.97
2018-12-29T14:57:34.421Z,99021.66
2018-12-29T15:00:04.346Z,99005.30
2018-12-29T15:02:53.162Z,99003.73
2018-12-29T15:08:49.715Z,98680.86
2018-12-29T15:11:38.574Z,99000.06
2018-12-29T15:17:22.149Z,98989.63
2018-12-29T15:20:10.965Z,98980.86
2018-12-29T15:22:52.159Z,98805.60
2018-12-29T15:25:40.974Z,98974.39
2018-12-29T15:28:48.890Z,98697.16
2018-12-29T15:31:37.730Z,98950.47
2018-12-29T15:34:26.536Z,98931.80
2018-12-29T15:37:15.346Z,98926.74
2018-12-29T15:43:32.799Z,98905.80
2018-12-29T15:46:21.615Z,98894.85
2018-12-29T15:49:10.441Z,98905.63
2018-12-29T15:51:59.256Z,98624.86
2018-12-29T15:54:48.134Z,98893.66
2018-12-29T15:57:36.936Z,98907.52
2018-12-29T16:00:25.851Z,98893.21
2018-12-29T16:03:14.655Z,98877.42
2018-12-29T16:06:03.463Z,98865.98
2018-12-29T16:08:52.260Z,98869.25
2018-12-29T16:11:42.801Z,98891.18
2018-12-29T16:14:50.639Z,98887.91
2018-12-29T16:17:39.420Z,98862.63
2018-12-29T16:20:28.239Z,98836.06
2018-12-29T16:23:18.766Z,98825.48
2018-12-29T16:26:02.398Z,98809.73
2018-12-29T16:28:51.188Z,98812.47
2018-12-29T16:31:40.006Z,98840.95
2018-12-29T16:34:30.536Z,98857.53
2018-12-29T16:37:19.416Z,98584.00
2018-12-29T16:40:08.233Z,98889.03
2018-12-29T16:42:57.035Z,98992.02
2018-12-29T16:45:48.363Z,98979.92
2018-12-29T16:48:38.118Z,98744.86
2018-12-29T16:51:26.929Z,98895.36
2018-12-29T16:54:15.723Z,98883.33
2018-12-29T16:57:23.628Z,98883.66
2018-12-29T17:00:12.427Z,98868.47
2018-12-29T17:03:01.237Z,98848.31
2018-12-29T17:08:57.793Z,98838.95
2018-12-29T17:11:52.327Z,98561.28
2018-12-29T17:14:37.231Z,98825.03
2018-12-29T17:17:26.061Z,98733.27
2018-12-29T17:20:14.866Z,98825.31
2018-12-29T17:22:56.495Z,98815.30
2018-12-29T17:25:45.302Z,98807.34
2018-12-29T17:28:34.129Z,98480.25
2018-12-29T17:31:22.948Z,98782.17
2018-12-29T17:34:11.759Z,98775.22
2018-12-29T17:37:00.552Z,98779.17
2018-12-29T17:39:49.368Z,98782.78
2018-12-29T17:42:38.202Z,98792.66
2018-12-29T17:45:28.710Z,98780.52
2018-12-29T17:48:19.235Z,98779.40
2018-12-29T17:51:08.049Z,98789.56
2018-12-29T17:53:58.572Z,98792.95
2018-12-29T17:56:49.106Z,98795.19
2018-12-29T17:59:37.908Z,98482.70
2018-12-29T18:05:21.603Z,98457.58
2018-12-29T18:08:10.372Z,98791.20
2018-12-29T18:10:59.251Z,98494.33
2018-12-29T18:16:57.728Z,98785.06
2018-12-29T18:19:46.652Z,98782.88
2018-12-29T18:25:22.719Z,98778.22
2018-12-29T18:28:11.557Z,98760.61
2018-12-29T18:31:00.446Z,98767.84
2018-12-29T18:33:49.315Z,98772.89
2018-12-29T18:36:38.551Z,98767.70
2018-12-29T18:39:27.436Z,98763.59
2018-12-29T18:42:16.422Z,98754.03
2018-12-29T18:48:20.118Z,98748.84
2018-12-29T18:51:10.692Z,98746.75
2018-12-29T18:54:01.596Z,98735.13
2018-12-29T18:56:52.168Z,98731.09
2018-12-29T18:59:41.127Z,98719.84
2018-12-29T19:02:30.009Z,98723.20
2018-12-29T19:05:18.926Z,98719.36
2018-12-29T19:08:07.800Z,98714.73
2018-12-29T19:10:56.667Z,98712.95
2018-12-29T19:13:47.293Z,98577.55
2018-12-29T19:16:37.828Z,98711.23
2018-12-29T19:19:26.723Z,98448.42
2018-12-29T19:22:15.521Z,98548.96
2018-12-29T19:24:57.396Z,98712.09
2018-12-29T19:27:46.191Z,98726.81
2018-12-29T19:30:35.010Z,98706.09
2018-12-29T19:33:25.543Z,98707.55
2018-12-29T19:36:16.062Z,98390.94
2018-12-29T19:39:26.541Z,98696.71
2018-12-29T19:42:15.342Z,98685.20
2018-12-29T19:45:04.230Z,98600.77
2018-12-29T19:47:53.018Z,98685.11
2018-12-29T19:50:43.578Z,98678.02
2018-12-29T19:53:34.122Z,98675.57
2018-12-29T19:56:22.935Z,98496.48
2018-12-29T19:59:11.724Z,98663.34
2018-12-29T20:02:00.657Z,98661.84
2018-12-29T20:04:49.445Z,98370.69
2018-12-29T20:07:40.049Z,98650.95
2018-12-29T20:10:28.943Z,98433.25
2018-12-29T20:13:17.881Z,98649.38
2018-12-29T20:16:06.680Z,98643.09
2018-12-29T20:18:55.502Z,98640.64
2018-12-29T20:21:44.321Z,98628.05
2018-12-29T20:24:25.746Z,98623.41
2018-12-29T20:27:14.712Z,98450.42
2018-12-29T20:30:22.664Z,98610.05
2018-12-29T20:33:30.683Z,98586.78
2018-12-29T20:36:19.475Z,98588.71
2018-12-29T20:39:08.314Z,98580.34
2018-12-29T20:41:57.176Z,98579.51
2018-12-29T20:44:46.004Z,98305.66
2018-12-29T20:47:41.601Z,98263.71
2018-12-29T20:50:49.643Z,98557.55
2018-12-29T20:53:38.611Z,98558.48
2018-12-29T20:59:24.190Z,98562.23
2018-12-29T21:02:12.993Z,98558.42
2018-12-29T21:05:01.883Z,98546.14
2018-12-29T21:07:51.193Z,98552.59
2018-12-29T21:10:40.427Z,98549.36
2018-12-29T21:13:30.899Z,98535.48
2018-12-29T21:16:19.731Z,98533.62
2018-12-29T21:19:29.476Z,98536.73
2018-12-29T21:22:19.064Z,98531.47
2018-12-29T21:25:08.019Z,98545.98
2018-12-29T21:27:56.865Z,98551.11
2018-12-29T21:31:05.260Z,98464.52
2018-12-29T21:33:56.171Z,98552.71
2018-12-29T21:37:05.965Z,98461.69
2018-12-29T21:39:54.869Z,98515.40
2018-12-29T21:42:44.138Z,98532.45
2018-12-29T21:45:33.082Z,98533.07
2018-12-29T21:48:21.952Z,98533.61
2018-12-29T21:51:10.780Z,98525.20
2018-12-29T21:53:59.617Z,98535.98
2018-12-29T21:56:48.523Z,98549.19
2018-12-29T21:59:37.422Z,98529.65
2018-12-29T22:02:26.214Z,98560.59
2018-12-29T22:05:15.024Z,98558.36
2018-12-29T22:08:05.545Z,98548.95
2018-12-29T22:10:54.395Z,98539.61
2018-12-29T22:13:44.966Z,98533.23
2018-12-29T22:16:33.852Z,98257.44
2018-12-29T22:19:24.369Z,98543.80
2018-12-29T22:22:13.184Z,98550.53
2018-12-29T22:24:56.949Z,98434.64
2018-12-29T22:27:45.765Z,98577.11
2018-12-29T22:33:42.385Z,98566.36
2018-12-29T22:36:31.188Z,98566.59
2018-12-29T22:39:20.008Z,98288.46
2018-12-29T22:42:08.816Z,98567.09
2018-12-29T22:44:57.606Z,98592.20
2018-12-29T22:47:48.152Z,98595.66
2018-12-29T22:50:41.040Z,98590.83
2018-12-29T22:53:27.560Z,98603.93
2018-12-29T22:59:24.119Z,98562.84
2018-12-29T23:02:12.908Z,98612.06
2018-12-29T23:05:01.719Z,98615.78
2018-12-29T23:10:58.266Z,98626.92
2018-12-29T23:13:47.105Z,98495.55
2018-12-29T23:16:35.912Z,98621.75
2018-12-29T23:19:24.718Z,98619.89
2018-12-29T23:25:08.442Z,98609.92
2018-12-29T23:27:51.793Z,98603.41
2018-12-29T23:30:40.595Z,98602.88
2018-12-29T23:33:29.410Z,98595.52
2018-12-29T23:36:18.207Z,98606.98
2018-12-29T23:39:07.022Z,98606.39
2018-12-29T23:41:55.816Z,98602.66
2018-12-29T23:44:44.626Z,98605.19
2018-12-29T23:47:33.427Z,98616.05
2018-12-29T23:50:22.291Z,98619.89
2018-12-29T23:53:12.806Z,98611.84
2018-12-29T23:56:03.290Z,98612.26
2018-12-29T23:58:52.101Z,98612.61
